aviador You're here:

LFRH Decoded Metar

LORIENT in FRANCE
Report Time2018-02-18 21:30:00
UTC Time2018-02-18 21:54:57
Flight Rules mvfr MVFR
Wind320° at 06 kt
W.Decomp.*RWY 02: 3.2 kt HW 5.1 kt LCW
RWY 25: 1.9 kt HW 5.7 kt RCW
W.Rank320° ranks 25
Current wind is above 320° avg. (5.8)
Visibility9999 m
Phenomena:Fog
Clouds:Overcast 015 Hf
Ceiling1,500 ft
Temp10°C (ISA -5)
Dew Point10°C (100% RH)
AAT7.9°C
QNH1020 hPa
Density Alt-492 ft
Elevation144 ft
Report Wrong Elevation
Raw Report
LFRH 182130Z AUTO 32006KT 9999 OVC015 10/10 Q1020 TEMPO 0500 FG
VV///=

Extra information for LFRH:More info

Metar Taf Metar & Taf Last 4 Metars F.Rules Stats Wind Profile Meteogram Temp Stats Airport Information Weather charts Add Link Nearby VenuesMetar ALERT Operation Metar Decoded Social comments